Time;durP1;ratioP1;P1;durP2;ratioP2;P2;SDS_P1;SDS_P2;PMS_P1;PMS_P2;Temp;Humidity;BMP_temperature;BMP_pressure;BME280_temperature;BME280_humidity;BME280_pressure;Samples;Min_cycle;Max_cycle;Signal;HPM_P1;HPM_P2
2022/03/08 00:00:28;;;;;;;18.25;11.73;;;7.40;72.20;;;;;;5052357;28;20423;-65
2022/03/08 00:02:57;;;;;;;17.65;12.15;;;7.40;71.80;;;;;;5056904;28;20459;-64
2022/03/08 00:05:26;;;;;;;17.88;12.23;;;7.40;71.90;;;;;;5045895;28;20897;-66
2022/03/08 00:07:52;;;;;;;17.75;12.30;;;7.30;72.10;;;;;;5045971;28;20480;-65
2022/03/08 00:10:18;;;;;;;17.58;12.35;;;7.30;72.20;;;;;;5052871;28;20426;-65
2022/03/08 00:12:48;;;;;;;17.55;12.60;;;7.30;72.20;;;;;;5047506;28;22426;-66
2022/03/08 00:15:20;;;;;;;19.23;12.68;;;7.20;72.20;;;;;;5048846;28;20417;-65
2022/03/08 00:17:47;;;;;;;19.45;12.80;;;7.30;72.70;;;;;;5049632;28;20423;-65
2022/03/08 00:20:13;;;;;;;17.33;12.43;;;7.30;72.80;;;;;;5048722;28;20428;-64
2022/03/08 00:22:40;;;;;;;16.90;12.43;;;7.30;72.60;;;;;;5049634;28;20451;-64
2022/03/08 00:25:08;;;;;;;17.92;12.60;;;7.20;72.20;;;;;;5054654;28;21244;-67
2022/03/08 00:27:34;;;;;;;17.83;12.50;;;7.20;72.70;;;;;;5056767;28;20462;-66
2022/03/08 00:30:04;;;;;;;17.23;12.55;;;7.20;72.50;;;;;;5045596;28;20991;-66
2022/03/08 00:32:30;;;;;;;16.33;12.15;;;7.10;72.30;;;;;;5055677;28;20447;-69
2022/03/08 00:34:56;;;;;;;16.83;11.82;;;7.10;73.00;;;;;;5045638;28;20400;-69
2022/03/08 00:37:22;;;;;;;17.77;11.93;;;7.10;72.60;;;;;;5044110;28;20474;-67
2022/03/08 00:39:48;;;;;;;17.77;12.27;;;7.00;72.70;;;;;;5045797;28;21259;-68
2022/03/08 00:42:16;;;;;;;17.50;12.07;;;7.00;72.80;;;;;;5045658;28;20413;-68
2022/03/08 00:44:42;;;;;;;16.08;11.65;;;7.00;72.80;;;;;;5043082;28;20416;-66
2022/03/08 00:47:09;;;;;;;19.33;12.63;;;7.00;72.40;;;;;;5057225;28;20463;-65
2022/03/08 00:49:35;;;;;;;20.93;12.63;;;7.00;72.60;;;;;;5050576;28;20425;-66
2022/03/08 00:52:02;;;;;;;17.75;12.35;;;6.90;72.50;;;;;;5056374;28;20491;-65
2022/03/08 00:54:29;;;;;;;16.40;11.98;;;6.90;72.80;;;;;;5046322;28;20486;-66
2022/03/08 00:56:55;;;;;;;20.02;12.68;;;6.80;73.00;;;;;;5050585;28;20504;-66
2022/03/08 00:59:20;;;;;;;17.87;12.23;;;6.80;73.20;;;;;;5045065;28;20840;-67
2022/03/08 01:01:46;;;;;;;16.75;12.27;;;6.80;73.50;;;;;;5053442;28;21025;-67
2022/03/08 01:04:12;;;;;;;17.33;12.50;;;6.70;73.10;;;;;;5048895;28;20393;-67
2022/03/08 01:06:40;;;;;;;16.10;12.47;;;6.70;73.10;;;;;;5051853;28;20445;-66
2022/03/08 01:09:06;;;;;;;17.02;12.32;;;6.60;74.00;;;;;;5045900;28;20405;-69
2022/03/08 01:11:32;;;;;;;17.52;12.05;;;6.60;73.60;;;;;;5044262;28;20924;-69
2022/03/08 01:13:59;;;;;;;16.80;12.13;;;6.60;73.90;;;;;;5044469;28;20405;-68
2022/03/08 01:16:24;;;;;;;17.50;11.93;;;6.50;73.40;;;;;;5044903;28;20413;-69
2022/03/08 01:18:51;;;;;;;17.17;11.75;;;6.50;73.70;;;;;;5052078;28;20839;-67
2022/03/08 01:21:17;;;;;;;17.10;12.13;;;6.50;74.20;;;;;;5048293;28;20405;-66
2022/03/08 01:23:42;;;;;;;17.40;12.50;;;6.40;73.70;;;;;;5049562;28;20439;-66
2022/03/08 01:26:08;;;;;;;18.63;11.97;;;6.40;74.10;;;;;;5043128;28;20444;-65
2022/03/08 01:28:34;;;;;;;16.67;12.00;;;6.30;74.70;;;;;;5053022;28;20439;-65
2022/03/08 01:31:01;;;;;;;16.48;11.52;;;6.30;74.70;;;;;;5045651;28;20423;-65
2022/03/08 01:33:27;;;;;;;16.25;11.50;;;6.30;74.30;;;;;;5055729;28;20441;-66
2022/03/08 01:35:54;;;;;;;17.85;11.82;;;6.30;74.20;;;;;;5045573;28;20448;-66
2022/03/08 01:38:20;;;;;;;15.68;11.77;;;6.30;74.10;;;;;;5057111;28;20413;-66
2022/03/08 01:40:45;;;;;;;15.55;11.80;;;6.30;73.50;;;;;;5054221;28;20500;-66
2022/03/08 01:43:11;;;;;;;17.30;11.77;;;6.20;73.50;;;;;;5057328;28;20399;-66
2022/03/08 01:45:37;;;;;;;16.20;11.32;;;6.20;73.40;;;;;;5040957;28;20415;-65
2022/03/08 01:48:03;;;;;;;16.67;11.38;;;6.10;73.40;;;;;;5045515;28;20901;-66
2022/03/08 01:50:29;;;;;;;15.68;11.05;;;6.10;73.80;;;;;;5055036;28;20407;-65
2022/03/08 01:52:56;;;;;;;14.85;11.13;;;6.10;73.90;;;;;;5057849;28;20419;-66
2022/03/08 01:55:23;;;;;;;17.27;10.82;;;6.10;74.00;;;;;;5044031;28;20504;-65
2022/03/08 01:57:50;;;;;;;15.63;11.45;;;6.10;73.40;;;;;;5045872;28;20749;-67
2022/03/08 02:00:23;;;;;;;15.77;10.63;;;6.10;73.50;;;;;;5048541;28;20417;-67
2022/03/08 02:02:49;;;;;;;15.70;10.93;;;6.10;73.20;;;;;;5043583;28;20809;-67
2022/03/08 02:05:15;;;;;;;15.40;10.77;;;6.00;73.20;;;;;;5047801;28;20414;-67
2022/03/08 02:07:41;;;;;;;15.02;10.80;;;6.00;72.90;;;;;;5057744;28;20812;-67
2022/03/08 02:10:08;;;;;;;15.70;9.73;;;6.00;72.80;;;;;;5056990;28;20217;-68
2022/03/08 02:12:34;;;;;;;16.27;9.38;;;5.70;73.70;;;;;;5048810;28;20697;-67
2022/03/08 02:15:20;;;;;;;14.52;9.75;;;5.40;74.40;;;;;;5048638;28;20214;-69
2022/03/08 02:17:46;;;;;;;18.67;9.65;;;5.10;74.80;;;;;;5064687;28;20642;-69
2022/03/08 02:20:16;;;;;;;15.63;9.60;;;5.00;75.10;;;;;;5048514;28;20196;-70
2022/03/08 02:22:43;;;;;;;14.38;9.55;;;4.90;75.20;;;;;;5048364;28;20191;-70
2022/03/08 02:25:10;;;;;;;18.25;9.55;;;4.80;75.40;;;;;;5049895;28;20284;-67
2022/03/08 02:27:43;;;;;;;16.80;9.50;;;4.70;75.50;;;;;;5049457;28;20187;-68
2022/03/08 02:30:14;;;;;;;15.07;9.35;;;4.50;75.50;;;;;;5047465;28;20191;-68
2022/03/08 02:32:40;;;;;;;16.95;9.55;;;4.50;75.80;;;;;;5066436;28;20301;-69
2022/03/08 02:35:07;;;;;;;14.38;9.18;;;4.40;75.90;;;;;;5054672;28;20187;-66
2022/03/08 02:37:41;;;;;;;21.08;9.75;;;4.30;76.00;;;;;;5074887;28;20674;-66
2022/03/08 02:40:09;;;;;;;17.30;9.10;;;4.30;76.40;;;;;;5052523;28;20655;-66
2022/03/08 02:42:35;;;;;;;13.93;8.82;;;4.30;76.50;;;;;;5072004;28;20191;-66
2022/03/08 02:45:01;;;;;;;14.15;8.88;;;4.20;76.60;;;;;;5050395;28;20307;-68
2022/03/08 02:47:26;;;;;;;15.00;8.75;;;4.20;76.70;;;;;;5067027;28;20190;-68
2022/03/08 02:49:52;;;;;;;17.90;9.15;;;4.10;76.70;;;;;;5068883;28;20205;-68
2022/03/08 02:52:18;;;;;;;13.80;8.82;;;4.10;76.90;;;;;;5051278;28;20714;-67
2022/03/08 02:54:43;;;;;;;15.90;9.50;;;4.10;77.10;;;;;;5067687;28;20214;-66
2022/03/08 02:57:09;;;;;;;14.48;9.38;;;4.10;77.30;;;;;;5050110;28;20300;-66
2022/03/08 02:59:34;;;;;;;15.63;8.93;;;4.00;77.40;;;;;;5065416;28;20198;-66
2022/03/08 03:02:03;;;;;;;17.50;9.20;;;4.10;77.60;;;;;;5067591;28;20654;-66
2022/03/08 03:04:29;;;;;;;16.30;9.23;;;4.00;77.70;;;;;;5053694;28;20175;-66
2022/03/08 03:06:55;;;;;;;14.80;8.65;;;4.00;77.80;;;;;;5068730;28;20240;-66
2022/03/08 03:09:20;;;;;;;16.15;9.05;;;3.90;77.90;;;;;;5067522;28;20805;-65
2022/03/08 03:11:46;;;;;;;13.88;8.88;;;3.90;78.10;;;;;;5050682;28;20200;-65
2022/03/08 03:14:12;;;;;;;17.00;8.65;;;3.90;78.10;;;;;;5067429;28;20550;-66
2022/03/08 03:16:38;;;;;;;18.60;9.60;;;3.90;78.30;;;;;;5075925;28;20693;-66
2022/03/08 03:19:06;;;;;;;13.98;8.98;;;3.90;78.50;;;;;;5067640;28;20182;-66
2022/03/08 03:21:32;;;;;;;13.40;8.73;;;3.80;78.50;;;;;;5079076;28;20646;-66
2022/03/08 03:23:57;;;;;;;13.70;8.50;;;3.80;78.50;;;;;;5073811;28;20281;-66
2022/03/08 03:26:23;;;;;;;15.13;8.75;;;3.80;78.70;;;;;;5068615;28;20265;-66
2022/03/08 03:28:49;;;;;;;14.85;9.23;;;3.80;78.80;;;;;;5067285;28;20187;-66
2022/03/08 03:31:15;;;;;;;14.65;8.95;;;3.80;78.90;;;;;;5030351;28;20241;-64
2022/03/08 03:33:41;;;;;;;14.60;8.50;;;3.80;79.00;;;;;;5051046;28;20284;-65
2022/03/08 03:36:06;;;;;;;14.90;8.15;;;3.80;79.00;;;;;;5048584;28;20671;-65
2022/03/08 03:38:32;;;;;;;13.75;8.57;;;3.70;79.00;;;;;;5050427;28;20214;-65
2022/03/08 03:40:58;;;;;;;13.18;8.63;;;3.80;79.10;;;;;;5050700;28;20266;-64
2022/03/08 03:43:24;;;;;;;13.63;8.68;;;3.70;79.00;;;;;;5064880;28;20832;-64
2022/03/08 03:45:49;;;;;;;12.85;8.80;;;3.70;79.00;;;;;;5050270;28;20269;-64
2022/03/08 03:48:15;;;;;;;15.07;8.77;;;3.70;79.10;;;;;;5059546;28;20278;-64
2022/03/08 03:50:41;;;;;;;14.88;8.77;;;3.70;79.00;;;;;;5054671;28;20648;-64
2022/03/08 03:53:07;;;;;;;12.75;8.13;;;3.70;79.10;;;;;;5060134;28;20193;-65
2022/03/08 03:55:33;;;;;;;18.15;8.40;;;3.70;79.10;;;;;;5055475;28;20191;-66
2022/03/08 03:57:59;;;;;;;13.02;8.68;;;3.60;79.20;;;;;;5056290;28;20654;-66
2022/03/08 04:00:25;;;;;;;12.40;7.90;;;3.60;79.20;;;;;;5056516;28;20217;-66
2022/03/08 04:02:50;;;;;;;14.52;8.77;;;3.60;79.10;;;;;;5059172;28;20191;-66
2022/03/08 04:05:16;;;;;;;17.27;7.90;;;3.60;79.10;;;;;;5053695;28;20190;-70
2022/03/08 04:07:42;;;;;;;13.93;8.32;;;3.50;79.10;;;;;;5060282;28;20330;-67
2022/03/08 04:10:10;;;;;;;12.82;7.88;;;3.50;79.20;;;;;;5046967;28;20190;-67
2022/03/08 04:12:36;;;;;;;13.65;8.30;;;3.50;79.30;;;;;;5049480;28;20257;-68
2022/03/08 04:15:02;;;;;;;14.77;8.18;;;3.40;79.50;;;;;;5046342;28;20270;-68
2022/03/08 04:17:28;;;;;;;15.73;8.43;;;3.40;79.60;;;;;;5053121;28;20210;-66
2022/03/08 04:19:54;;;;;;;15.50;8.32;;;3.40;79.70;;;;;;5053593;28;20225;-66
2022/03/08 04:22:20;;;;;;;12.73;8.68;;;3.40;79.80;;;;;;5049345;28;20544;-67
2022/03/08 04:24:46;;;;;;;11.73;7.95;;;3.40;80.00;;;;;;5042238;28;20184;-69
2022/03/08 04:27:12;;;;;;;14.05;8.38;;;3.40;79.80;;;;;;5047081;28;20214;-69
2022/03/08 04:29:38;;;;;;;13.13;8.30;;;3.40;79.70;;;;;;5047136;28;20230;-71
2022/03/08 04:32:04;;;;;;;13.07;7.97;;;3.40;79.70;;;;;;5060829;28;20766;-71
2022/03/08 04:34:30;;;;;;;12.50;8.10;;;3.40;79.80;;;;;;5064646;28;20193;-70
2022/03/08 04:36:56;;;;;;;15.05;8.70;;;3.30;79.80;;;;;;5067094;28;20597;-71
2022/03/08 04:39:21;;;;;;;14.80;8.35;;;3.30;79.70;;;;;;5048677;28;20182;-70
2022/03/08 04:41:47;;;;;;;14.07;7.85;;;3.30;79.70;;;;;;5070807;28;20205;-70
2022/03/08 04:44:13;;;;;;;11.52;8.07;;;3.30;79.70;;;;;;5065996;28;20178;-69
2022/03/08 04:46:40;;;;;;;12.68;8.48;;;3.30;79.80;;;;;;5067239;28;20178;-70
2022/03/08 04:49:06;;;;;;;17.38;8.57;;;3.30;79.80;;;;;;5073385;28;20593;-68
2022/03/08 04:51:32;;;;;;;13.68;8.48;;;3.30;79.80;;;;;;5066806;28;20312;-68
2022/03/08 04:53:58;;;;;;;16.90;8.93;;;3.30;80.00;;;;;;5077370;28;20269;-70
2022/03/08 04:56:23;;;;;;;14.60;9.15;;;3.30;80.00;;;;;;5054073;28;20662;-70
2022/03/08 04:58:49;;;;;;;14.65;8.63;;;3.30;80.00;;;;;;5068861;28;20654;-69
2022/03/08 05:01:15;;;;;;;15.80;8.35;;;3.30;80.00;;;;;;5071998;28;20740;-68
2022/03/08 05:03:41;;;;;;;13.90;8.95;;;3.20;79.90;;;;;;5067395;28;20194;-69
2022/03/08 05:06:07;;;;;;;13.90;8.48;;;3.20;80.00;;;;;;5066250;28;20190;-68
2022/03/08 05:08:33;;;;;;;15.75;9.38;;;3.20;80.00;;;;;;5071935;28;20667;-68
2022/03/08 05:10:59;;;;;;;12.98;8.55;;;3.20;80.00;;;;;;5071330;28;20210;-70
2022/03/08 05:13:25;;;;;;;14.43;8.48;;;3.20;80.10;;;;;;5074332;28;20257;-68
2022/03/08 05:15:51;;;;;;;14.57;8.57;;;3.20;80.20;;;;;;5078007;28;20187;-64
2022/03/08 05:18:18;;;;;;;16.67;9.15;;;3.10;80.40;;;;;;5065780;28;20201;-69
2022/03/08 05:20:44;;;;;;;14.05;8.77;;;3.10;80.40;;;;;;5050010;28;20669;-69
2022/03/08 05:23:09;;;;;;;13.07;8.82;;;3.10;80.50;;;;;;5067040;28;20195;-69
2022/03/08 05:25:35;;;;;;;14.25;8.82;;;3.10;80.60;;;;;;5049281;28;20773;-69
2022/03/08 05:28:01;;;;;;;13.48;9.02;;;3.10;80.70;;;;;;5066864;28;20192;-69
2022/03/08 05:30:26;;;;;;;16.38;9.05;;;3.00;80.70;;;;;;5071211;28;20192;-70
2022/03/08 05:32:52;;;;;;;14.85;8.55;;;3.00;80.80;;;;;;5045205;28;20232;-68
2022/03/08 05:35:18;;;;;;;16.05;9.00;;;3.00;80.90;;;;;;5042621;28;20188;-68
2022/03/08 05:37:44;;;;;;;13.18;8.98;;;3.00;81.00;;;;;;5047456;28;20604;-68
2022/03/08 05:40:10;;;;;;;13.70;8.13;;;3.00;81.10;;;;;;5061103;28;20206;-69
2022/03/08 05:42:38;;;;;;;12.02;8.15;;;2.90;81.10;;;;;;5053771;28;20175;-69
2022/03/08 05:45:08;;;;;;;13.27;8.70;;;2.90;81.20;;;;;;5056550;28;20186;-68
2022/03/08 05:47:35;;;;;;;14.40;9.00;;;2.90;81.20;;;;;;5049538;28;20503;-69
2022/03/08 05:50:01;;;;;;;13.13;8.45;;;2.90;81.30;;;;;;5059346;28;20179;-69
2022/03/08 05:52:27;;;;;;;14.98;9.20;;;2.90;81.40;;;;;;5059049;28;20241;-67
2022/03/08 05:54:52;;;;;;;19.27;9.68;;;2.90;81.40;;;;;;5053897;28;20635;-67
2022/03/08 05:57:18;;;;;;;15.90;10.40;;;2.90;81.50;;;;;;5049535;28;20310;-67
2022/03/08 05:59:44;;;;;;;19.95;8.95;;;2.90;81.70;;;;;;5050584;28;20195;-67
2022/03/08 06:02:11;;;;;;;14.20;8.85;;;2.90;81.70;;;;;;5048324;28;20183;-67
2022/03/08 06:04:37;;;;;;;13.27;8.48;;;2.80;81.50;;;;;;5047907;28;20186;-67
2022/03/08 06:07:03;;;;;;;13.40;8.63;;;2.80;81.70;;;;;;5046867;28;20191;-67
2022/03/08 06:09:28;;;;;;;12.93;9.27;;;2.80;82.50;;;;;;5051545;28;20643;-68
2022/03/08 06:11:54;;;;;;;19.08;11.82;;;2.70;81.80;;;;;;5051072;28;20195;-67
2022/03/08 06:14:20;;;;;;;14.68;11.05;;;2.70;82.10;;;;;;5055066;28;20206;-69
2022/03/08 06:16:46;;;;;;;15.75;9.07;;;2.70;82.10;;;;;;5048898;28;20295;-66
2022/03/08 06:19:11;;;;;;;14.20;10.82;;;2.70;82.30;;;;;;5062891;28;20270;-66
2022/03/08 06:21:37;;;;;;;14.35;8.77;;;2.80;82.50;;;;;;5048286;28;20671;-66
2022/03/08 06:24:03;;;;;;;18.92;10.95;;;2.80;82.60;;;;;;5050719;28;20635;-65
2022/03/08 06:26:31;;;;;;;13.73;8.10;;;2.80;82.50;;;;;;5050757;28;20191;-67
2022/03/08 06:28:56;;;;;;;14.70;8.52;;;2.80;82.60;;;;;;5050254;28;20299;-66
2022/03/08 06:31:22;;;;;;;13.82;8.05;;;2.80;82.60;;;;;;5048453;28;20310;-66
2022/03/08 06:33:48;;;;;;;17.17;8.35;;;2.80;82.60;;;;;;5048874;28;20222;-66
2022/03/08 06:36:13;;;;;;;16.02;10.27;;;2.80;82.70;;;;;;5050030;28;20199;-66
2022/03/08 06:38:39;;;;;;;11.98;8.27;;;2.80;82.90;;;;;;5050722;28;20573;-65
2022/03/08 06:41:05;;;;;;;13.73;9.85;;;2.90;82.90;;;;;;5049591;28;20881;-68
2022/03/08 06:43:31;;;;;;;14.35;9.85;;;3.20;83.70;;;;;;5048701;28;20478;-66
2022/03/08 06:45:57;;;;;;;13.53;9.37;;;3.60;82.60;;;;;;5051504;28;20875;-67
2022/03/08 06:48:22;;;;;;;15.23;10.10;;;3.80;81.20;;;;;;5049143;28;20252;-67
2022/03/08 06:50:48;;;;;;;12.35;8.52;;;3.60;81.70;;;;;;5048397;28;20642;-67
2022/03/08 06:53:13;;;;;;;13.75;9.65;;;3.40;82.30;;;;;;5048918;28;20213;-64
2022/03/08 06:55:39;;;;;;;12.88;9.95;;;3.30;82.50;;;;;;5059815;28;20731;-67
2022/03/08 06:58:05;;;;;;;13.50;9.70;;;3.30;82.60;;;;;;5056689;28;20409;-68
2022/03/08 07:00:31;;;;;;;12.90;9.15;;;3.50;82.70;;;;;;5047474;28;20500;-65
2022/03/08 07:02:57;;;;;;;12.77;9.33;;;3.80;81.30;;;;;;5048025;28;20539;-64
2022/03/08 07:05:23;;;;;;;13.25;10.13;;;4.00;81.10;;;;;;5049341;28;20483;-66
2022/03/08 07:07:48;;;;;;;14.18;8.60;;;4.00;79.70;;;;;;5049610;28;20191;-67
2022/03/08 07:10:14;;;;;;;13.93;8.95;;;3.80;80.30;;;;;;5048641;28;20240;-67
2022/03/08 07:12:40;;;;;;;13.70;8.05;;;3.50;81.10;;;;;;5046273;28;20249;-67
2022/03/08 07:15:07;;;;;;;11.82;7.88;;;3.40;81.50;;;;;;5051313;28;20194;-67
2022/03/08 07:17:32;;;;;;;12.52;7.53;;;3.30;81.80;;;;;;5047644;28;20236;-66
2022/03/08 07:19:59;;;;;;;13.50;8.25;;;3.30;81.90;;;;;;5047477;28;20180;-67
2022/03/08 07:22:27;;;;;;;12.23;7.57;;;3.30;81.80;;;;;;5041382;28;20190;-65
2022/03/08 07:24:54;;;;;;;16.15;8.23;;;3.20;81.80;;;;;;5049723;28;20206;-69
2022/03/08 07:27:20;;;;;;;12.02;8.13;;;3.20;81.80;;;;;;5047636;28;20257;-67
2022/03/08 07:29:46;;;;;;;11.40;7.43;;;3.20;81.70;;;;;;5047650;28;20733;-67
2022/03/08 07:32:12;;;;;;;13.07;7.70;;;3.20;81.80;;;;;;5061532;28;20222;-65
2022/03/08 07:34:37;;;;;;;11.15;7.43;;;3.20;82.10;;;;;;5068342;28;20190;-67
2022/03/08 07:37:03;;;;;;;12.90;8.32;;;3.30;81.80;;;;;;5052616;28;20225;-65
2022/03/08 07:39:29;;;;;;;14.45;7.70;;;3.30;81.90;;;;;;5068621;28;20182;-68
2022/03/08 07:41:55;;;;;;;15.63;8.30;;;3.30;81.90;;;;;;5068391;28;20292;-66
2022/03/08 07:44:23;;;;;;;12.05;7.68;;;3.30;81.90;;;;;;5083146;28;20174;-67
2022/03/08 07:46:48;;;;;;;12.00;7.90;;;3.40;82.60;;;;;;5067316;28;20553;-67
2022/03/08 07:49:14;;;;;;;13.50;8.57;;;3.40;81.90;;;;;;5068256;28;20194;-66
2022/03/08 07:51:39;;;;;;;11.73;8.00;;;3.40;81.80;;;;;;5069113;28;20198;-67
2022/03/08 07:54:05;;;;;;;12.48;7.57;;;3.50;82.20;;;;;;5052535;28;20182;-68
2022/03/08 07:56:31;;;;;;;14.73;8.43;;;3.50;82.00;;;;;;5069808;28;20740;-66
2022/03/08 07:58:57;;;;;;;13.23;7.93;;;3.60;81.90;;;;;;5068472;28;20217;-68
2022/03/08 08:01:22;;;;;;;12.02;7.60;;;3.60;81.90;;;;;;5066560;28;20201;-68
2022/03/08 08:03:48;;;;;;;12.43;7.88;;;3.60;81.80;;;;;;5065003;28;20182;-67
2022/03/08 08:06:13;;;;;;;11.75;8.48;;;3.70;81.90;;;;;;5068565;28;20217;-69
2022/03/08 08:08:39;;;;;;;12.65;8.48;;;3.70;82.10;;;;;;5049728;28;20178;-66
2022/03/08 08:11:05;;;;;;;13.18;8.15;;;3.80;82.40;;;;;;5068841;28;20186;-66
2022/03/08 08:13:31;;;;;;;13.57;8.60;;;3.80;82.10;;;;;;5072632;28;20229;-68
2022/03/08 08:15:56;;;;;;;14.88;9.02;;;3.90;82.40;;;;;;5067708;28;20183;-67
2022/03/08 08:18:22;;;;;;;13.48;9.00;;;4.00;82.10;;;;;;5068084;28;20237;-68
2022/03/08 08:20:48;;;;;;;15.02;8.80;;;4.00;82.00;;;;;;5068347;28;20686;-67
2022/03/08 08:23:13;;;;;;;14.57;8.88;;;4.10;82.10;;;;;;5070114;28;20183;-67
2022/03/08 08:25:39;;;;;;;14.15;9.07;;;4.20;81.90;;;;;;5068481;28;20178;-68
2022/03/08 08:28:06;;;;;;;14.98;8.70;;;4.30;81.70;;;;;;5068418;28;20189;-69
2022/03/08 08:30:33;;;;;;;18.23;9.52;;;4.40;82.00;;;;;;5067591;28;20194;-67
2022/03/08 08:32:59;;;;;;;;;;;4.60;82.70;;;;;;5074800;28;20078;-66
2022/03/08 08:35:24;;;;;;;;;;;4.90;84.50;;;;;;5068416;28;20327;-67
2022/03/08 08:37:50;;;;;;;11.18;8.63;;;5.50;85.00;;;;;;5067435;28;20558;-65
2022/03/08 08:40:15;;;;;;;12.97;8.60;;;7.50;76.70;;;;;;5051069;28;20747;-67
2022/03/08 08:42:41;;;;;;;12.15;8.45;;;9.70;64.20;;;;;;5070586;28;20926;-67
2022/03/08 08:45:08;;;;;;;13.73;8.00;;;11.40;56.10;;;;;;5067265;28;20398;-67
2022/03/08 08:47:34;;;;;;;11.05;7.40;;;12.70;50.80;;;;;;5058073;28;20413;-67
2022/03/08 08:50:00;;;;;;;11.10;7.47;;;13.90;47.10;;;;;;5067048;28;20422;-68
2022/03/08 08:52:25;;;;;;;;;;;15.30;44.10;;;;;;5069411;28;20052;-67
2022/03/08 08:54:51;;;;;;;;;;;14.90;48.50;;;;;;5077376;28;19949;-67
2022/03/08 08:57:16;;;;;;;;;;;14.90;51.10;;;;;;5074643;28;19960;-66
2022/03/08 08:59:42;;;;;;;12.43;6.95;;;15.30;53.60;;;;;;5068157;28;20192;-69
2022/03/08 09:02:09;;;;;;;10.63;5.90;;;16.00;53.20;;;;;;5070780;28;20572;-68
2022/03/08 09:04:34;;;;;;;17.85;6.25;;;16.80;49.70;;;;;;5050961;28;20186;-70
2022/03/08 09:07:00;;;;;;;7.22;5.43;;;17.20;47.30;;;;;;5068768;28;20178;-69
2022/03/08 09:09:26;;;;;;;12.18;5.38;;;17.80;46.00;;;;;;5069596;28;20678;-67
2022/03/08 09:11:52;;;;;;;9.77;5.00;;;18.40;43.40;;;;;;5070345;28;20281;-66
2022/03/08 09:14:18;;;;;;;8.50;5.03;;;18.80;42.20;;;;;;5072686;28;20183;-67
2022/03/08 09:16:44;;;;;;;7.65;5.10;;;19.10;40.40;;;;;;5075644;28;20248;-67
2022/03/08 09:19:10;;;;;;;13.05;5.20;;;19.30;38.90;;;;;;5054271;28;20267;-68
2022/03/08 09:21:37;;;;;;;13.35;5.30;;;19.30;37.80;;;;;;5072341;28;20203;-68
2022/03/08 09:24:03;;;;;;;10.10;5.00;;;19.30;36.80;;;;;;5071966;28;20212;-67
2022/03/08 09:26:29;;;;;;;7.40;4.88;;;19.50;36.00;;;;;;5061548;28;20629;-67
2022/03/08 09:28:55;;;;;;;7.50;5.35;;;19.80;35.80;;;;;;5075040;28;20183;-67
2022/03/08 09:31:20;;;;;;;8.13;5.00;;;20.00;35.10;;;;;;5071431;28;20286;-67
2022/03/08 09:33:46;;;;;;;6.28;4.82;;;20.10;34.50;;;;;;5053767;28;20219;-65
2022/03/08 09:36:12;;;;;;;8.50;5.28;;;19.90;33.70;;;;;;5054316;28;20187;-66
2022/03/08 09:38:38;;;;;;;16.30;5.07;;;19.90;33.90;;;;;;5080158;28;20237;-68
2022/03/08 09:41:04;;;;;;;12.10;5.47;;;20.00;33.70;;;;;;5072617;28;20195;-66
2022/03/08 09:43:34;;;;;;;8.40;5.25;;;20.10;32.70;;;;;;5053814;28;20198;-68
2022/03/08 09:45:59;;;;;;;11.90;5.15;;;19.90;32.40;;;;;;5071770;28;20618;-67
2022/03/08 09:48:25;;;;;;;6.70;4.90;;;19.90;32.60;;;;;;5071721;28;20261;-65
2022/03/08 09:50:50;;;;;;;15.55;5.25;;;20.10;33.00;;;;;;5072417;28;20210;-67
2022/03/08 09:53:17;;;;;;;11.45;5.28;;;20.30;32.30;;;;;;5072426;28;20190;-67
2022/03/08 09:55:42;;;;;;;7.57;5.05;;;20.50;31.80;;;;;;5071980;28;20507;-68
2022/03/08 09:58:08;;;;;;;6.40;5.07;;;20.60;31.70;;;;;;5071738;28;20262;-68
2022/03/08 10:00:34;;;;;;;9.95;4.78;;;20.70;31.20;;;;;;5071114;28;20201;-67
2022/03/08 10:03:00;;;;;;;;;;;20.70;31.10;;;;;;5079901;28;20107;-67
2022/03/08 10:05:33;;;;;;;;;;;20.30;31.40;;;;;;5072312;28;19919;-68
2022/03/08 10:08:08;;;;;;;;;;;20.00;32.60;;;;;;5071826;28;20288;-66
2022/03/08 10:10:42;;;;;;;;;;;19.80;33.10;;;;;;5071935;28;19912;-68
2022/03/08 10:13:09;;;;;;;;;;;19.60;33.70;;;;;;5072899;28;19919;-68
2022/03/08 10:15:35;;;;;;;;;;;19.40;33.40;;;;;;5071653;28;19958;-68
2022/03/08 10:18:00;;;;;;;;;;;19.40;33.90;;;;;;5054017;28;19959;-68
2022/03/08 10:20:28;;;;;;;;;;;19.40;34.00;;;;;;5075703;28;20335;-69
2022/03/08 10:22:53;;;;;;;14.05;5.60;;;19.30;34.30;;;;;;5051919;28;20192;-69
2022/03/08 10:25:22;;;;;;;8.77;5.30;;;19.30;32.70;;;;;;5070126;28;20422;-68
2022/03/08 10:27:54;;;;;;;10.43;5.40;;;19.80;29.20;;;;;;5051614;28;20763;-68
2022/03/08 10:30:21;;;;;;;7.63;5.70;;;19.60;28.90;;;;;;5053205;28;20747;-68
2022/03/08 10:32:47;;;;;;;13.80;5.97;;;18.90;29.90;;;;;;5071206;28;20218;-68
2022/03/08 10:35:23;;;;;;;12.88;6.38;;;18.50;30.70;;;;;;5070794;28;20189;-68
2022/03/08 10:37:48;;;;;;;8.90;6.00;;;18.00;31.00;;;;;;5070697;28;20204;-67
2022/03/08 10:40:22;;;;;;;8.27;5.97;;;17.70;31.90;;;;;;5071333;28;20186;-67
2022/03/08 10:43:03;;;;;;;8.27;6.03;;;17.50;32.50;;;;;;5067820;28;20200;-68
2022/03/08 10:45:30;;;;;;;;;;;17.20;33.30;;;;;;5067820;28;20154;-68
2022/03/08 10:47:56;;;;;;;7.97;5.85;;;16.90;33.20;;;;;;5068393;28;20404;-68
2022/03/08 10:50:24;;;;;;;12.15;6.50;;;16.90;32.50;;;;;;5050064;28;20430;-68
2022/03/08 10:52:52;;;;;;;10.43;6.07;;;16.70;33.20;;;;;;5051085;28;20439;-69
2022/03/08 10:55:35;;;;;;;12.85;6.20;;;16.60;33.90;;;;;;5069565;28;20416;-67
2022/03/08 10:58:06;;;;;;;8.93;5.80;;;16.50;34.40;;;;;;5067511;28;20415;-70
2022/03/08 11:00:43;;;;;;;9.55;5.90;;;16.50;36.30;;;;;;5069686;28;20896;-68
2022/03/08 11:03:24;;;;;;;8.98;6.20;;;16.50;35.90;;;;;;5066397;28;20407;-68
2022/03/08 11:05:53;;;;;;;10.67;6.00;;;16.40;35.60;;;;;;5069651;28;20934;-68
2022/03/08 11:08:20;;;;;;;10.25;6.25;;;16.40;34.70;;;;;;5068186;28;20933;-65
2022/03/08 11:10:46;;;;;;;9.93;6.10;;;16.30;35.10;;;;;;5067919;28;20421;-67
2022/03/08 11:13:15;;;;;;;10.02;6.07;;;16.20;34.90;;;;;;5066832;28;20442;-67
2022/03/08 11:15:45;;;;;;;9.48;6.28;;;16.10;35.30;;;;;;5069441;28;20879;-67
2022/03/08 11:18:13;;;;;;;14.63;6.50;;;16.10;36.10;;;;;;5068941;28;20415;-68
2022/03/08 11:20:41;;;;;;;11.13;6.10;;;16.10;36.20;;;;;;5068442;28;20442;-66
2022/03/08 11:23:07;;;;;;;8.23;5.95;;;16.40;36.80;;;;;;5066584;28;20415;-65
2022/03/08 11:25:43;;;;;;;9.85;6.53;;;16.60;36.10;;;;;;5069746;28;20396;-65
2022/03/08 11:28:08;;;;;;;11.50;6.45;;;16.80;37.40;;;;;;5051489;28;20426;-67
2022/03/08 11:30:43;;;;;;;10.87;6.30;;;17.10;37.10;;;;;;5050673;28;20403;-69
2022/03/08 11:33:40;;;;;;;9.57;6.43;;;17.20;34.00;;;;;;5067073;28;20500;-68
2022/03/08 11:36:23;;;;;;;10.02;6.18;;;17.00;36.70;;;;;;5100416;28;20419;-66
2022/03/08 11:39:17;;;;;;;8.20;6.30;;;16.80;34.90;;;;;;5067661;28;20907;-69
2022/03/08 11:41:53;;;;;;;9.13;6.20;;;16.60;34.40;;;;;;5071516;28;20442;-68
2022/03/08 11:44:33;;;;;;;9.18;6.20;;;16.50;35.60;;;;;;5068626;28;20514;-67
2022/03/08 11:47:01;;;;;;;9.43;6.38;;;16.50;34.60;;;;;;5064879;28;20810;-68
2022/03/08 11:49:47;;;;;;;9.05;6.25;;;16.30;35.70;;;;;;5068591;28;20549;-67
2022/03/08 11:52:27;;;;;;;7.97;6.20;;;16.30;35.80;;;;;;5066375;28;20418;-67
2022/03/08 11:55:09;;;;;;;8.07;5.70;;;16.30;34.80;;;;;;5067750;28;20407;-67
2022/03/08 11:57:43;;;;;;;8.63;6.30;;;16.10;36.70;;;;;;5049856;28;20439;-68
2022/03/08 12:00:22;;;;;;;9.95;5.63;;;16.00;35.10;;;;;;5049963;28;20396;-67
2022/03/08 12:02:51;;;;;;;11.40;6.15;;;15.90;33.90;;;;;;5066555;28;20412;-67
2022/03/08 12:05:46;;;;;;;12.85;5.90;;;15.80;35.50;;;;;;5068957;28;20642;-66
2022/03/08 12:08:29;;;;;;;10.88;5.82;;;15.40;36.10;;;;;;5067772;28;20179;-69
2022/03/08 12:11:00;;;;;;;10.32;5.78;;;15.10;36.50;;;;;;5069201;28;20190;-68
2022/03/08 12:13:32;;;;;;;8.18;5.88;;;14.90;37.10;;;;;;5066266;28;20516;-68
2022/03/08 12:16:09;;;;;;;11.68;6.30;;;15.20;35.60;;;;;;5070520;28;20403;-67
2022/03/08 12:18:57;;;;;;;12.77;5.82;;;15.20;36.10;;;;;;5065619;28;20451;-68
2022/03/08 12:21:23;;;;;;;10.60;5.80;;;15.20;35.00;;;;;;5064489;28;20427;-67
2022/03/08 12:24:00;;;;;;;11.43;5.80;;;15.40;36.50;;;;;;5068051;28;20392;-68
2022/03/08 12:26:39;;;;;;;11.37;6.10;;;15.50;37.40;;;;;;5048648;28;20423;-68
2022/03/08 12:29:17;;;;;;;9.55;5.63;;;15.60;36.10;;;;;;5032789;28;21087;-69
2022/03/08 12:31:57;;;;;;;12.03;5.90;;;15.60;35.90;;;;;;5063259;28;20769;-70
2022/03/08 12:34:45;;;;;;;11.18;6.15;;;15.60;36.20;;;;;;5063199;28;20438;-68
2022/03/08 12:37:22;;;;;;;11.32;6.05;;;15.60;35.80;;;;;;5049787;28;20506;-69
2022/03/08 12:39:55;;;;;;;10.70;6.40;;;15.60;35.70;;;;;;5066032;28;20420;-68
2022/03/08 12:42:55;;;;;;;9.27;5.70;;;15.50;36.40;;;;;;5067481;28;20430;-66
2022/03/08 12:45:23;;;;;;;8.77;5.68;;;15.40;37.50;;;;;;5022504;28;20450;-68
2022/03/08 12:47:57;;;;;;;14.85;6.00;;;15.40;36.90;;;;;;5049158;28;20404;-70
2022/03/08 12:50:27;;;;;;;9.43;5.80;;;15.50;36.50;;;;;;5064975;28;20411;-69